Time;durP1;ratioP1;P1;durP2;ratioP2;P2;SDS_P1;SDS_P2;PMS_P1;PMS_P2;Temp;Humidity;BMP_temperature;BMP_pressure;BME280_temperature;BME280_humidity;BME280_pressure;Samples;Min_cycle;Max_cycle;Signal;HPM_P1;HPM_P2
2023/01/25 00:01:48;;;;;;;33.00;18.60;;;3.00;99.90;;;;;;5050312;28;20219;-72
2023/01/25 00:04:13;;;;;;;37.93;19.50;;;2.90;99.90;;;;;;5039945;28;20260;-73
2023/01/25 00:06:39;;;;;;;34.50;18.77;;;3.00;99.90;;;;;;5048776;28;20932;-73
2023/01/25 00:09:04;;;;;;;32.07;18.40;;;2.90;99.90;;;;;;5051976;28;20222;-73
2023/01/25 00:11:30;;;;;;;38.13;18.63;;;2.90;99.90;;;;;;5050649;28;20207;-73
2023/01/25 00:13:56;;;;;;;32.90;18.50;;;2.80;99.90;;;;;;5043574;28;20685;-72
2023/01/25 00:16:22;;;;;;;30.60;16.63;;;2.80;99.90;;;;;;5042074;28;20184;-73
2023/01/25 00:18:49;;;;;;;33.30;19.90;;;2.80;99.90;;;;;;5050323;28;20288;-72
2023/01/25 00:21:16;;;;;;;31.27;18.37;;;2.80;99.90;;;;;;5037035;28;20457;-73
2023/01/25 00:23:42;;;;;;;33.40;17.50;;;2.90;99.90;;;;;;5043948;28;20751;-73
2023/01/25 00:26:08;;;;;;;30.27;17.37;;;2.90;99.90;;;;;;5050770;28;20438;-73
2023/01/25 00:28:33;;;;;;;30.70;18.57;;;2.90;99.90;;;;;;5050380;28;20245;-73
2023/01/25 00:31:01;;;;;;;29.80;16.87;;;2.90;99.90;;;;;;5050443;28;20226;-73
2023/01/25 00:33:54;;;;;;;34.67;18.30;;;2.90;99.90;;;;;;5044118;28;20429;-73
2023/01/25 00:36:37;;;;;;;29.63;17.03;;;2.90;99.90;;;;;;5047946;28;20471;-73
2023/01/25 00:39:04;;;;;;;34.90;17.73;;;2.90;99.90;;;;;;5050564;28;20588;-73
2023/01/25 00:41:30;;;;;;;31.53;19.10;;;2.90;99.90;;;;;;5049748;28;20479;-72
2023/01/25 00:43:56;;;;;;;32.63;17.93;;;2.80;99.90;;;;;;5044466;28;20437;-73
2023/01/25 00:46:22;;;;;;;37.70;20.07;;;2.80;99.90;;;;;;5049715;28;20312;-73
2023/01/25 00:48:47;;;;;;;27.87;16.73;;;2.90;99.90;;;;;;5053097;28;20442;-73
2023/01/25 00:51:14;;;;;;;31.60;18.47;;;2.80;99.90;;;;;;5054665;28;20285;-73
2023/01/25 00:53:40;;;;;;;33.23;18.00;;;2.90;99.90;;;;;;5043533;28;20203;-74
2023/01/25 00:56:06;;;;;;;32.43;19.13;;;2.80;99.90;;;;;;5043346;28;20926;-73
2023/01/25 00:58:32;;;;;;;32.77;17.77;;;2.80;99.90;;;;;;5045502;28;20900;-72
2023/01/25 01:00:57;;;;;;;33.60;17.23;;;2.70;99.90;;;;;;5046616;28;20460;-73
2023/01/25 01:03:23;;;;;;;33.00;17.37;;;2.80;99.90;;;;;;5052769;28;20652;-73
2023/01/25 01:06:02;;;;;;;30.87;17.10;;;2.80;99.90;;;;;;5039396;28;20585;-73
2023/01/25 01:08:28;;;;;;;29.00;17.60;;;2.80;99.90;;;;;;5054424;28;20183;-73
2023/01/25 01:11:00;;;;;;;31.10;17.40;;;2.80;99.90;;;;;;5053945;28;20503;-73
2023/01/25 01:13:27;;;;;;;38.53;19.80;;;2.70;99.90;;;;;;5036514;28;20183;-73
2023/01/25 01:15:53;;;;;;;33.67;18.27;;;2.70;99.90;;;;;;5047818;28;20965;-73
2023/01/25 01:18:18;;;;;;;32.63;17.90;;;2.80;99.90;;;;;;5048847;28;20472;-73
2023/01/25 01:20:51;;;;;;;31.07;17.37;;;2.80;99.90;;;;;;5045479;28;20723;-72
2023/01/25 01:23:16;;;;;;;23.87;16.00;;;2.80;99.90;;;;;;5045386;28;20744;-72
2023/01/25 01:25:42;;;;;;;32.07;17.83;;;2.80;99.90;;;;;;5045912;28;20434;-72
2023/01/25 01:28:08;;;;;;;28.13;16.17;;;2.80;99.90;;;;;;5042601;28;20250;-73
2023/01/25 01:30:33;;;;;;;32.63;17.43;;;2.70;99.90;;;;;;5048524;28;20218;-73
2023/01/25 01:32:59;;;;;;;29.90;17.47;;;2.70;99.90;;;;;;5046030;28;20657;-73
2023/01/25 01:35:24;;;;;;;30.80;16.80;;;2.80;99.90;;;;;;5048559;28;20718;-73
2023/01/25 01:37:50;;;;;;;27.43;17.27;;;2.80;99.90;;;;;;5042790;28;20252;-73
2023/01/25 01:40:16;;;;;;;29.70;16.37;;;2.80;99.90;;;;;;5048739;28;20186;-73
2023/01/25 01:43:01;;;;;;;28.13;16.30;;;2.90;99.90;;;;;;5044235;28;20225;-73
2023/01/25 01:45:47;;;;;;;28.67;16.73;;;2.90;99.90;;;;;;5048707;28;20560;-73
2023/01/25 01:48:47;;;;;;;26.80;16.03;;;2.80;99.90;;;;;;5033531;28;20435;-74
2023/01/25 01:51:37;;;;;;;28.20;16.10;;;2.80;99.90;;;;;;5036415;28;20454;-73
2023/01/25 01:54:32;;;;;;;32.13;17.83;;;2.70;99.90;;;;;;5038053;28;20425;-73
2023/01/25 01:57:30;;;;;;;32.00;16.50;;;2.80;99.90;;;;;;5024353;28;20475;-73
2023/01/25 03:30:37;;;;;;;28.57;15.50;;;2.70;99.90;;;;;;6029759;22;20392;-70
2023/01/25 03:33:03;;;;;;;23.90;14.17;;;2.70;99.90;;;;;;4971597;28;20451;-73
2023/01/25 03:35:29;;;;;;;28.43;14.40;;;2.80;99.90;;;;;;4981692;28;20191;-74
2023/01/25 03:37:55;;;;;;;28.23;15.17;;;2.70;99.90;;;;;;4990156;28;20491;-72
2023/01/25 03:40:21;;;;;;;27.13;15.17;;;2.80;99.90;;;;;;4981953;28;20445;-73
2023/01/25 03:42:46;;;;;;;34.67;16.00;;;2.80;99.90;;;;;;4973173;28;20206;-72
2023/01/25 03:45:13;;;;;;;27.97;15.80;;;2.80;99.90;;;;;;4954041;28;20171;-73
2023/01/25 03:47:39;;;;;;;31.23;15.30;;;2.80;99.90;;;;;;4972318;28;20190;-72
2023/01/25 03:50:06;;;;;;;29.33;16.00;;;2.70;99.90;;;;;;4967218;28;20488;-73
2023/01/25 03:52:37;;;;;;;26.77;14.10;;;2.70;99.90;;;;;;4964985;28;20905;-72
2023/01/25 03:55:03;;;;;;;24.90;14.10;;;2.70;99.90;;;;;;4973687;28;20425;-73
2023/01/25 03:57:29;;;;;;;28.17;14.23;;;2.70;99.90;;;;;;4950974;28;20993;-73
2023/01/25 03:59:54;;;;;;;26.57;14.23;;;2.70;99.90;;;;;;4972942;28;20435;-73
2023/01/25 04:02:20;;;;;;;24.33;12.83;;;2.70;99.90;;;;;;4969502;28;20214;-73
2023/01/25 04:04:45;;;;;;;27.97;15.30;;;2.70;99.90;;;;;;4972581;28;20237;-73
2023/01/25 04:07:11;;;;;;;30.97;15.60;;;2.60;99.90;;;;;;4973017;28;20190;-72
2023/01/25 04:09:36;;;;;;;29.10;15.60;;;2.60;99.90;;;;;;4965089;28;20187;-73
2023/01/25 04:12:02;;;;;;;29.63;15.07;;;2.70;99.90;;;;;;4957499;28;20584;-73
2023/01/25 04:14:27;;;;;;;29.70;15.53;;;2.70;99.90;;;;;;4945755;28;20191;-74
2023/01/25 04:16:53;;;;;;;28.17;14.10;;;2.70;99.90;;;;;;4958714;28;20226;-73
2023/01/25 04:19:18;;;;;;;28.40;14.53;;;2.70;99.90;;;;;;4972654;28;20183;-73
2023/01/25 04:21:44;;;;;;;24.47;14.43;;;2.60;99.90;;;;;;4969865;28;20314;-74
2023/01/25 04:24:09;;;;;;;25.90;14.67;;;2.60;99.90;;;;;;4973286;28;20194;-73
2023/01/25 04:26:35;;;;;;;27.30;14.30;;;2.60;99.90;;;;;;4954937;28;20185;-74
2023/01/25 04:29:00;;;;;;;31.13;15.63;;;2.60;99.90;;;;;;4958003;28;20541;-73
2023/01/25 04:31:26;;;;;;;25.67;13.90;;;2.60;99.90;;;;;;4969919;28;20217;-73
2023/01/25 04:33:51;;;;;;;26.90;14.50;;;2.60;99.90;;;;;;4971506;28;20215;-73
2023/01/25 04:36:17;;;;;;;23.00;13.50;;;2.60;99.90;;;;;;4973143;28;20176;-75
2023/01/25 04:38:42;;;;;;;26.53;14.60;;;2.50;99.90;;;;;;4972530;28;20269;-73
2023/01/25 04:41:08;;;;;;;25.03;13.60;;;2.60;99.90;;;;;;4972341;28;20766;-74
2023/01/25 04:43:34;;;;;;;27.43;13.87;;;2.60;99.90;;;;;;4956196;28;20193;-74
2023/01/25 04:46:02;;;;;;;21.60;13.67;;;2.60;99.90;;;;;;4972612;28;20909;-74
2023/01/25 04:48:28;;;;;;;22.20;12.97;;;2.70;99.90;;;;;;4965254;28;20185;-73
2023/01/25 04:50:53;;;;;;;23.50;14.20;;;2.70;99.90;;;;;;4955795;28;20459;-73
2023/01/25 04:53:19;;;;;;;26.03;13.27;;;2.70;99.90;;;;;;4963301;28;20300;-72
2023/01/25 04:55:46;;;;;;;24.47;13.13;;;2.70;99.90;;;;;;4951838;28;20206;-74
2023/01/25 04:58:11;;;;;;;24.10;13.60;;;2.60;99.90;;;;;;4967144;28;20663;-73
2023/01/25 05:00:37;;;;;;;26.10;14.30;;;2.70;99.90;;;;;;4972335;28;20496;-73
2023/01/25 05:03:03;;;;;;;23.37;13.03;;;2.70;99.90;;;;;;4964187;28;20180;-74
2023/01/25 05:05:28;;;;;;;22.33;13.27;;;2.60;99.90;;;;;;4961513;28;20187;-75
2023/01/25 05:07:54;;;;;;;20.20;11.73;;;2.60;99.90;;;;;;4970284;28;20440;-74
2023/01/25 05:10:20;;;;;;;20.80;13.07;;;2.60;99.90;;;;;;4959423;28;20687;-73
2023/01/25 05:12:45;;;;;;;23.67;14.57;;;2.60;99.90;;;;;;4955986;28;20225;-72
2023/01/25 05:15:11;;;;;;;20.33;12.63;;;2.60;99.90;;;;;;4969037;28;20186;-76
2023/01/25 05:17:36;;;;;;;23.63;12.00;;;2.60;99.90;;;;;;4963847;28;20207;-74
2023/01/25 05:20:03;;;;;;;27.47;14.00;;;2.60;99.90;;;;;;4964386;28;20247;-74
2023/01/25 05:22:28;;;;;;;24.57;12.67;;;2.70;99.90;;;;;;4967141;28;20198;-73
2023/01/25 05:24:54;;;;;;;24.20;13.40;;;2.60;99.90;;;;;;4968231;28;20782;-74
2023/01/25 05:27:20;;;;;;;21.53;12.80;;;2.60;99.90;;;;;;4971955;28;20187;-74
2023/01/25 05:29:46;;;;;;;20.87;11.97;;;2.60;99.90;;;;;;4971805;28;20202;-77
2023/01/25 05:32:15;;;;;;;25.03;12.60;;;2.60;99.90;;;;;;4957082;28;20438;-73
2023/01/25 05:34:41;;;;;;;22.87;13.23;;;2.60;99.90;;;;;;4972014;28;20185;-74
2023/01/25 05:37:08;;;;;;;29.23;12.20;;;2.60;99.90;;;;;;4974863;28;20460;-75
2023/01/25 05:39:35;;;;;;;21.47;12.33;;;2.60;99.90;;;;;;4974567;28;20404;-76
2023/01/25 05:42:00;;;;;;;19.17;12.67;;;2.60;99.90;;;;;;4970877;28;20449;-76
2023/01/25 05:44:26;;;;;;;22.10;12.37;;;2.60;99.90;;;;;;4969358;28;20429;-73
2023/01/25 05:46:51;;;;;;;20.90;12.43;;;2.60;99.90;;;;;;4975957;28;20198;-73
2023/01/25 05:49:18;;;;;;;18.10;12.47;;;2.60;99.90;;;;;;4975858;28;20183;-74
2023/01/25 05:51:44;;;;;;;23.70;13.97;;;2.60;99.90;;;;;;4967881;28;20216;-73
2023/01/25 05:54:15;;;;;;;20.87;11.90;;;2.70;99.90;;;;;;4971689;28;20431;-73
2023/01/25 05:56:42;;;;;;;21.10;10.60;;;2.70;99.90;;;;;;4970449;28;20434;-73
2023/01/25 05:59:09;;;;;;;15.50;10.30;;;2.70;99.90;;;;;;4975502;28;20424;-74
2023/01/25 06:01:35;;;;;;;20.53;11.97;;;2.70;99.90;;;;;;4971028;28;20450;-74
2023/01/25 06:04:01;;;;;;;18.40;11.00;;;2.70;99.90;;;;;;4971941;28;20486;-73
2023/01/25 06:06:26;;;;;;;17.43;11.60;;;2.60;99.90;;;;;;4975431;28;20578;-73
2023/01/25 06:08:52;;;;;;;21.10;11.93;;;2.70;99.90;;;;;;4974992;28;20246;-75
2023/01/25 06:11:22;;;;;;;21.20;11.10;;;2.60;99.90;;;;;;4973537;28;20210;-73
2023/01/25 06:13:48;;;;;;;19.87;11.23;;;2.70;99.90;;;;;;4968957;28;20191;-72
2023/01/25 06:16:15;;;;;;;21.53;10.53;;;2.60;99.90;;;;;;4974763;28;20539;-76
2023/01/25 06:18:42;;;;;;;18.57;9.70;;;2.70;99.90;;;;;;4974492;28;20544;-76
2023/01/25 06:21:07;;;;;;;21.87;13.37;;;2.60;99.90;;;;;;4964579;28;20483;-74
2023/01/25 06:23:33;;;;;;;16.47;10.10;;;2.70;99.90;;;;;;4959387;28;20781;-74
2023/01/25 06:26:05;;;;;;;17.77;10.77;;;2.60;99.90;;;;;;4974366;28;20260;-74
2023/01/25 06:28:31;;;;;;;17.23;10.27;;;2.60;99.90;;;;;;4968507;28;20767;-74
2023/01/25 06:31:20;;;;;;;20.43;10.70;;;2.60;99.90;;;;;;4973137;28;21300;-74
2023/01/25 06:33:48;;;;;;;19.60;11.70;;;2.60;99.90;;;;;;4963473;28;20437;-74
2023/01/25 06:36:17;;;;;;;17.87;11.20;;;2.60;99.90;;;;;;4974902;28;20416;-74
2023/01/25 06:38:46;;;;;;;18.50;10.97;;;2.70;99.90;;;;;;4964299;28;20527;-74
2023/01/25 06:41:11;;;;;;;20.43;11.10;;;2.70;99.90;;;;;;4970265;28;20434;-72
2023/01/25 06:43:38;;;;;;;18.93;11.13;;;2.70;99.90;;;;;;4946159;28;20424;-74
2023/01/25 06:46:06;;;;;;;19.43;11.43;;;2.70;99.90;;;;;;4971100;28;20186;-73
2023/01/25 06:48:32;;;;;;;20.23;11.20;;;2.60;99.90;;;;;;4962385;28;20440;-72
2023/01/25 06:51:03;;;;;;;18.97;10.33;;;2.70;99.90;;;;;;4961903;28;20457;-73
2023/01/25 06:53:30;;;;;;;18.67;12.00;;;2.70;99.90;;;;;;4948631;28;20432;-72
2023/01/25 06:56:02;;;;;;;20.20;11.40;;;2.70;99.90;;;;;;4972800;28;20433;-73
2023/01/25 06:58:29;;;;;;;16.90;10.23;;;2.70;99.90;;;;;;4973898;28;20963;-72
2023/01/25 07:01:21;;;;;;;17.87;10.20;;;2.70;99.90;;;;;;4973635;28;20539;-72
2023/01/25 07:03:57;;;;;;;16.60;11.40;;;2.70;99.90;;;;;;4963782;28;20848;-72
2023/01/25 07:06:24;;;;;;;15.83;9.90;;;2.80;99.90;;;;;;4974045;28;20418;-72
2023/01/25 07:08:49;;;;;;;20.40;10.93;;;2.80;99.90;;;;;;4960218;28;20442;-73
2023/01/25 07:11:17;;;;;;;20.23;10.83;;;2.80;99.90;;;;;;4969000;28;20822;-72
2023/01/25 07:13:44;;;;;;;15.60;11.03;;;2.80;99.90;;;;;;4968980;28;20219;-72
2023/01/25 07:16:13;;;;;;;16.67;11.33;;;2.80;99.90;;;;;;4973900;28;20930;-72
2023/01/25 07:18:39;;;;;;;19.53;11.30;;;2.80;99.90;;;;;;4973422;28;20468;-72
2023/01/25 07:21:06;;;;;;;22.80;11.70;;;2.80;99.90;;;;;;4964766;28;20471;-75
2023/01/25 07:23:33;;;;;;;17.33;8.60;;;2.80;99.90;;;;;;4969217;28;20276;-73
2023/01/25 07:26:00;;;;;;;18.60;10.33;;;2.80;99.90;;;;;;4965694;28;20438;-71
2023/01/25 07:28:26;;;;;;;18.90;9.77;;;2.80;99.90;;;;;;4945462;28;20432;-72
2023/01/25 07:30:51;;;;;;;17.63;11.00;;;2.80;99.90;;;;;;4951648;28;20473;-72
2023/01/25 07:33:17;;;;;;;16.77;10.10;;;2.80;99.90;;;;;;4970238;28;20437;-72
2023/01/25 07:35:42;;;;;;;19.03;11.00;;;2.80;99.90;;;;;;4965377;28;20203;-70
2023/01/25 07:38:08;;;;;;;18.20;10.80;;;2.80;99.90;;;;;;4973584;28;20209;-72
2023/01/25 07:40:34;;;;;;;15.80;9.70;;;2.90;99.90;;;;;;4973290;28;20232;-72
2023/01/25 07:42:59;;;;;;;17.20;9.83;;;2.90;99.90;;;;;;4968564;28;20268;-72
2023/01/25 07:45:29;;;;;;;16.10;9.80;;;2.80;99.90;;;;;;4965667;28;20213;-72
2023/01/25 07:47:58;;;;;;;20.80;9.60;;;2.80;99.90;;;;;;4971677;28;20192;-72
2023/01/25 07:50:26;;;;;;;17.53;10.13;;;2.80;99.90;;;;;;4972405;28;20423;-72
2023/01/25 07:52:51;;;;;;;17.17;11.10;;;2.80;99.90;;;;;;4957346;28;20436;-72
2023/01/25 07:55:17;;;;;;;18.57;10.20;;;2.90;99.90;;;;;;4956760;28;20408;-71
2023/01/25 07:57:42;;;;;;;16.60;10.13;;;2.80;99.90;;;;;;4972712;28;20218;-70
2023/01/25 08:00:09;;;;;;;20.50;10.40;;;2.90;99.90;;;;;;4972956;28;20177;-74
2023/01/25 08:02:34;;;;;;;16.63;10.10;;;2.90;99.90;;;;;;4944212;28;20211;-70
2023/01/25 08:05:00;;;;;;;17.00;10.23;;;2.90;99.90;;;;;;4961933;28;20409;-71
2023/01/25 08:07:28;;;;;;;21.33;14.00;;;3.00;99.90;;;;;;4969181;28;20686;-72
2023/01/25 08:09:54;;;;;;;18.53;10.50;;;2.90;99.90;;;;;;4973075;28;20662;-73
2023/01/25 08:12:19;;;;;;;16.33;9.67;;;3.00;99.90;;;;;;4967003;28;20587;-72
2023/01/25 08:14:45;;;;;;;16.73;9.90;;;3.00;99.90;;;;;;4963744;28;20200;-73
2023/01/25 08:17:10;;;;;;;15.93;9.17;;;3.00;99.90;;;;;;4973447;28;20215;-72
2023/01/25 08:19:36;;;;;;;18.63;9.87;;;3.00;99.90;;;;;;4972936;28;20193;-72
2023/01/25 08:22:01;;;;;;;16.50;9.97;;;3.10;99.90;;;;;;4965247;28;20209;-72
2023/01/25 08:24:27;;;;;;;15.30;9.63;;;3.00;99.90;;;;;;4958408;28;20190;-72
2023/01/25 08:26:52;;;;;;;21.47;13.70;;;3.00;99.90;;;;;;4963274;28;20247;-72
2023/01/25 08:29:18;;;;;;;17.70;9.40;;;3.00;99.90;;;;;;4949359;28;20191;-73
2023/01/25 08:31:44;;;;;;;16.20;9.60;;;2.90;99.90;;;;;;4970921;28;20230;-72
2023/01/25 08:34:10;;;;;;;14.20;9.40;;;3.00;99.90;;;;;;4967033;28;20658;-71
2023/01/25 08:36:35;;;;;;;21.10;10.80;;;2.90;99.90;;;;;;4972568;28;20197;-72
2023/01/25 08:39:04;;;;;;;16.23;9.90;;;3.00;99.90;;;;;;4954607;28;20469;-72
2023/01/25 08:41:31;;;;;;;16.30;9.73;;;3.00;99.90;;;;;;4965101;28;20197;-72
2023/01/25 08:43:57;;;;;;;18.77;10.57;;;2.90;99.90;;;;;;4966758;28;20511;-72
2023/01/25 08:46:24;;;;;;;16.60;9.40;;;3.00;99.90;;;;;;4962154;28;20421;-73
2023/01/25 08:48:54;;;;;;;14.03;8.83;;;2.90;99.90;;;;;;4952513;28;20265;-70
2023/01/25 08:51:20;;;;;;;21.33;9.43;;;2.90;99.90;;;;;;4954643;28;20450;-73
2023/01/25 08:53:45;;;;;;;15.60;9.90;;;2.90;99.90;;;;;;4961925;28;20473;-71
2023/01/25 08:56:13;;;;;;;14.60;9.17;;;3.00;99.90;;;;;;4972036;28;20453;-73
2023/01/25 08:58:42;;;;;;;15.67;9.40;;;3.00;99.90;;;;;;4965944;28;20272;-73
2023/01/25 09:01:09;;;;;;;16.43;10.00;;;3.00;99.90;;;;;;4971766;28;21031;-72
2023/01/25 09:03:37;;;;;;;16.73;9.77;;;3.00;99.90;;;;;;4960165;28;20969;-72
2023/01/25 09:06:03;;;;;;;15.03;9.90;;;3.00;99.90;;;;;;4971040;28;20421;-72
2023/01/25 09:08:28;;;;;;;18.67;12.27;;;3.00;99.90;;;;;;4975611;28;20795;-72
2023/01/25 09:10:54;;;;;;;17.30;9.60;;;3.00;99.90;;;;;;4976179;28;20216;-72
2023/01/25 09:13:19;;;;;;;15.63;8.73;;;2.90;99.90;;;;;;4967925;28;20665;-72
2023/01/25 09:15:45;;;;;;;16.00;9.10;;;2.90;99.90;;;;;;4968733;28;20185;-72
2023/01/25 09:18:11;;;;;;;17.73;9.43;;;2.90;99.90;;;;;;4971453;28;20214;-72
2023/01/25 09:20:39;;;;;;;22.63;11.60;;;2.80;99.90;;;;;;4964715;28;20195;-73
2023/01/25 09:23:05;;;;;;;15.70;10.00;;;2.90;99.90;;;;;;4961568;28;20559;-71
2023/01/25 09:25:30;;;;;;;17.70;9.93;;;2.90;99.90;;;;;;4971771;28;20514;-73
2023/01/25 09:27:56;;;;;;;14.37;9.90;;;2.90;99.90;;;;;;4973044;28;20181;-72
2023/01/25 09:30:21;;;;;;;18.27;9.80;;;2.90;99.90;;;;;;4962523;28;20191;-71
2023/01/25 09:32:50;;;;;;;16.60;10.50;;;3.00;99.90;;;;;;4968200;28;20214;-70
2023/01/25 09:35:16;;;;;;;15.80;9.30;;;3.00;99.90;;;;;;4970967;28;20185;-71
2023/01/25 09:37:41;;;;;;;14.47;9.43;;;3.00;99.90;;;;;;4970942;28;20818;-73
2023/01/25 09:40:27;;;;;;;18.10;11.03;;;2.90;99.90;;;;;;4959696;28;20703;-72
2023/01/25 09:43:13;;;;;;;15.10;9.13;;;2.90;99.90;;;;;;4975562;28;20177;-73
2023/01/25 09:45:39;;;;;;;15.23;9.30;;;2.90;99.90;;;;;;4954743;28;20462;-71
2023/01/25 09:48:24;;;;;;;17.37;9.77;;;3.00;99.90;;;;;;4958058;28;20933;-72
2023/01/25 09:51:04;;;;;;;13.07;8.90;;;3.00;99.90;;;;;;4972039;28;20276;-72
2023/01/25 09:53:34;;;;;;;19.90;10.37;;;3.00;99.90;;;;;;4975034;28;20497;-71
2023/01/25 09:56:21;;;;;;;15.37;9.20;;;3.00;99.90;;;;;;4975422;28;20442;-73
2023/01/25 09:58:49;;;;;;;17.03;10.20;;;3.10;99.90;;;;;;4975050;28;20494;-72
2023/01/25 10:01:24;;;;;;;18.13;10.30;;;3.10;99.90;;;;;;4974992;28;20446;-73
2023/01/25 10:04:03;;;;;;;15.80;10.23;;;3.10;99.90;;;;;;4975006;28;20487;-72
2023/01/25 10:06:36;;;;;;;16.07;10.43;;;3.20;99.90;;;;;;4962543;28;20424;-72
2023/01/25 10:09:31;;;;;;;15.80;9.87;;;3.20;99.90;;;;;;4974063;28;20398;-72
2023/01/25 10:12:11;;;;;;;16.47;10.80;;;3.20;99.90;;;;;;4966786;28;20444;-72
2023/01/25 10:14:37;;;;;;;16.40;9.30;;;3.20;99.90;;;;;;4946391;28;20437;-72
2023/01/25 10:17:12;;;;;;;17.47;10.30;;;3.20;99.90;;;;;;4957957;28;20569;-72
2023/01/25 10:20:26;;;;;;;16.83;10.13;;;3.10;99.90;;;;;;4969538;28;20190;-72
2023/01/25 10:23:06;;;;;;;21.00;11.43;;;3.10;99.90;;;;;;4950112;28;20536;-72
2023/01/25 10:25:35;;;;;;;19.07;10.23;;;3.10;99.90;;;;;;4964028;28;20802;-72
2023/01/25 10:28:05;;;;;;;17.70;11.10;;;3.20;99.90;;;;;;4969786;28;20424;-72
2023/01/25 10:30:41;;;;;;;18.60;10.33;;;3.20;99.90;;;;;;4966903;28;20429;-72
2023/01/25 10:33:14;;;;;;;20.57;11.43;;;3.20;99.90;;;;;;4973451;28;20948;-71
2023/01/25 10:35:44;;;;;;;20.30;11.50;;;3.20;99.90;;;;;;4967100;28;20442;-72
2023/01/25 10:38:41;;;;;;;18.13;10.10;;;3.20;99.90;;;;;;4972609;28;20470;-72
2023/01/25 10:41:15;;;;;;;17.77;11.57;;;3.20;99.90;;;;;;4967501;28;20454;-72
2023/01/25 10:43:40;;;;;;;19.33;10.50;;;3.10;99.90;;;;;;4973800;28;20512;-71
2023/01/25 10:46:32;;;;;;;20.50;11.73;;;3.20;99.90;;;;;;4963728;28;20462;-72
2023/01/25 10:49:13;;;;;;;19.90;11.70;;;3.10;99.90;;;;;;4967923;28;20214;-71
2023/01/25 10:51:38;;;;;;;19.33;11.10;;;3.20;99.90;;;;;;4968578;28;20604;-71
2023/01/25 10:54:05;;;;;;;18.90;10.57;;;3.20;99.90;;;;;;4973224;28;20924;-71
2023/01/25 10:56:37;;;;;;;17.20;11.27;;;3.20;99.90;;;;;;4966033;28;20186;-71
2023/01/25 10:59:23;;;;;;;17.47;10.67;;;3.20;99.90;;;;;;4973672;28;20474;-71
2023/01/25 11:01:49;;;;;;;19.00;11.00;;;3.20;99.90;;;;;;4973740;28;20437;-72
2023/01/25 11:04:35;;;;;;;17.37;11.20;;;3.30;99.90;;;;;;4970294;28;20434;-72
2023/01/25 11:07:03;;;;;;;18.20;12.00;;;3.30;99.90;;;;;;4963370;28;20180;-72
2023/01/25 11:09:34;;;;;;;22.83;12.63;;;3.30;99.90;;;;;;4973825;28;20865;-71
2023/01/25 11:12:10;;;;;;;18.20;12.07;;;3.20;99.90;;;;;;4973783;28;20409;-72
2023/01/25 11:14:35;;;;;;;18.00;11.20;;;3.20;99.90;;;;;;4973785;28;20413;-72
2023/01/25 11:17:03;;;;;;;28.00;14.33;;;3.20;99.90;;;;;;4959567;28;20805;-73
2023/01/25 11:19:36;;;;;;;21.00;13.13;;;3.10;99.90;;;;;;4967170;28;20237;-70
2023/01/25 11:22:19;;;;;;;20.67;11.53;;;3.10;99.90;;;;;;4958905;28;20453;-73
2023/01/25 11:24:44;;;;;;;23.53;12.73;;;3.10;99.90;;;;;;4969185;28;21076;-72
2023/01/25 11:27:25;;;;;;;22.83;12.60;;;3.10;99.90;;;;;;4965506;28;20516;-72
2023/01/25 11:30:08;;;;;;;24.03;12.90;;;3.10;99.90;;;;;;4958311;28;20218;-71
2023/01/25 11:32:33;;;;;;;20.97;13.10;;;3.00;99.90;;;;;;4964841;28;20477;-71
2023/01/25 11:34:59;;;;;;;23.30;12.40;;;3.10;99.90;;;;;;4965523;28;20483;-72
2023/01/25 11:38:04;;;;;;;20.37;11.67;;;3.10;99.90;;;;;;4974386;28;20208;-73
2023/01/25 11:40:51;;;;;;;20.50;13.70;;;3.10;99.90;;;;;;4932511;28;20195;-72
2023/01/25 11:43:29;;;;;;;21.13;11.70;;;3.10;99.90;;;;;;4968382;28;20449;-72
2023/01/25 11:46:16;;;;;;;20.93;12.93;;;3.10;99.90;;;;;;4968151;28;20422;-72
2023/01/25 11:49:11;;;;;;;21.93;12.10;;;3.10;99.90;;;;;;4973728;28;20427;-72
2023/01/25 11:51:54;;;;;;;22.50;12.10;;;3.10;99.90;;;;;;4968052;28;20465;-72
2023/01/25 11:54:54;;;;;;;17.80;11.80;;;3.00;99.90;;;;;;4968763;28;20986;-72
2023/01/25 11:57:33;;;;;;;20.80;13.17;;;3.10;99.90;;;;;;4973251;28;20893;-72
2023/01/25 12:00:18;;;;;;;34.53;19.67;;;3.10;99.90;;;;;;4965434;28;20431;-72
2023/01/25 12:03:27;;;;;;;25.00;13.57;;;3.10;99.90;;;;;;4961705;28;20459;-71
2023/01/25 12:06:09;;;;;;;19.60;12.10;;;3.10;99.90;;;;;;4962800;28;20428;-72
2023/01/25 12:09:07;;;;;;;22.07;12.57;;;3.10;99.90;;;;;;4955791;28;20455;-73
2023/01/25 12:12:05;;;;;;;20.93;12.27;;;3.00;99.90;;;;;;4966947;28;20458;-73
2023/01/25 12:15:05;;;;;;;25.30;14.20;;;3.00;99.90;;;;;;4956513;28;20499;-72
2023/01/25 12:18:13;;;;;;;19.90;12.20;;;3.00;99.90;;;;;;4958941;28;20436;-72
2023/01/25 12:21:14;;;;;;;23.87;13.93;;;3.00;99.90;;;;;;4958896;28;20437;-74
2023/01/25 12:23:53;;;;;;;20.90;12.40;;;3.00;99.90;;;;;;4888177;29;20433;-72
2023/01/25 12:26:43;;;;;;;24.10;13.47;;;3.00;99.90;;;;;;4962961;28;20453;-72
2023/01/25 12:29:28;;;;;;;23.47;12.17;;;3.00;99.90;;;;;;4972747;28;20430;-71
2023/01/25 12:32:22;;;;;;;22.60;12.67;;;3.00;99.90;;;;;;4967451;28;20486;-72
2023/01/25 12:35:01;;;;;;;25.30;12.73;;;3.00;99.90;;;;;;4972724;28;20435;-72
2023/01/25 12:37:34;;;;;;;23.50;13.67;;;3.00;99.90;;;;;;4940217;28;20461;-71
2023/01/25 12:40:13;;;;;;;18.90;11.90;;;2.90;99.90;;;;;;4972664;28;20438;-73
2023/01/25 12:42:51;;;;;;;26.60;14.73;;;3.00;99.90;;;;;;4967808;28;20546;-72
2023/01/25 12:45:23;;;;;;;20.63;11.63;;;3.00;99.90;;;;;;4970058;28;20410;-72
2023/01/25 12:47:55;;;;;;;22.03;13.10;;;3.00;99.90;;;;;;4967492;28;20417;-71
2023/01/25 12:50:37;;;;;;;27.53;13.40;;;3.00;99.90;;;;;;4964324;28;20442;-72
2023/01/25 12:53:24;;;;;;;26.53;15.83;;;3.00;99.90;;;;;;4966005;28;20420;-71
2023/01/25 12:55:51;;;;;;;31.97;16.03;;;2.90;99.90;;;;;;4972093;28;20416;-71
2023/01/25 12:58:28;;;;;;;28.70;14.67;;;2.90;99.90;;;;;;4972177;28;20469;-72
2023/01/25 13:01:20;;;;;;;36.00;15.00;;;2.80;99.90;;;;;;4970968;28;20455;-72
2023/01/25 13:04:23;;;;;;;30.77;15.97;;;2.80;99.90;;;;;;4967030;28;20843;-71
2023/01/25 13:07:26;;;;;;;24.07;14.07;;;2.80;99.90;;;;;;4967437;28;21002;-72
2023/01/25 13:10:01;;;;;;;22.67;12.67;;;2.90;99.90;;;;;;4972145;28;20419;-72
2023/01/25 13:12:27;;;;;;;24.70;13.60;;;2.90;99.90;;;;;;4963773;28;20443;-72
2023/01/25 13:14:52;;;;;;;21.83;13.27;;;2.90;99.90;;;;;;4969225;28;20478;-71
2023/01/25 13:17:28;;;;;;;21.07;13.30;;;3.00;99.90;;;;;;4961159;28;20214;-72
2023/01/25 13:19:53;;;;;;;21.50;13.53;;;3.00;99.90;;;;;;4972443;28;20195;-70
2023/01/25 13:22:59;;;;;;;20.60;12.70;;;3.00;99.90;;;;;;4963137;28;20461;-72
2023/01/25 13:25:26;;;;;;;30.07;14.87;;;2.90;99.90;;;;;;4893020;29;20183;-72
2023/01/25 13:27:51;;;;;;;20.17;12.20;;;2.90;99.90;;;;;;4893540;29;20532;-72
2023/01/25 13:30:29;;;;;;;29.47;14.83;;;3.00;99.90;;;;;;4925787;28;20491;-72
2023/01/25 13:32:58;;;;;;;23.43;14.33;;;3.00;99.90;;;;;;4964660;28;20194;-72
2023/01/25 13:35:30;;;;;;;27.13;13.90;;;3.00;99.90;;;;;;4971058;28;20480;-72
2023/01/25 13:38:20;;;;;;;28.10;14.60;;;3.00;99.90;;;;;;4971656;28;20461;-72
2023/01/25 13:41:02;;;;;;;30.30;15.63;;;3.10;99.90;;;;;;4953589;28;20903;-72
2023/01/25 13:43:28;;;;;;;35.93;16.43;;;3.10;99.90;;;;;;4971143;28;20417;-72
2023/01/25 13:45:53;;;;;;;27.83;15.67;;;3.00;99.90;;;;;;4967679;28;20488;-72
2023/01/25 13:48:22;;;;;;;30.60;17.50;;;2.90;99.90;;;;;;4971561;28;20200;-72
2023/01/25 13:50:56;;;;;;;25.17;15.27;;;2.90;99.90;;;;;;4971493;28;20647;-71
2023/01/25 13:53:25;;;;;;;23.97;15.07;;;2.90;99.90;;;;;;4966990;28;20430;-71
2023/01/25 13:55:53;;;;;;;28.03;15.90;;;3.00;99.90;;;;;;4968970;28;20433;-71
2023/01/25 13:58:24;;;;;;;31.10;16.47;;;2.90;99.90;;;;;;4971196;28;20530;-72
2023/01/25 14:00:54;;;;;;;29.53;17.33;;;2.90;99.90;;;;;;4974886;28;20449;-71
2023/01/25 14:03:28;;;;;;;32.13;16.77;;;2.90;99.90;;;;;;4965303;28;20918;-71
2023/01/25 14:06:01;;;;;;;35.40;19.50;;;2.90;99.90;;;;;;4974919;28;20423;-72
2023/01/25 14:08:27;;;;;;;30.67;17.00;;;2.80;99.90;;;;;;4974519;28;20421;-71
2023/01/25 14:10:54;;;;;;;33.40;17.87;;;2.80;99.90;;;;;;4974628;28;20450;-71
2023/01/25 14:13:19;;;;;;;36.27;19.40;;;2.90;99.90;;;;;;4965414;28;20489;-71
2023/01/25 14:16:11;;;;;;;32.63;19.27;;;2.90;99.90;;;;;;4965524;28;20526;-72
2023/01/25 14:18:37;;;;;;;31.63;18.93;;;2.90;99.90;;;;;;4970797;28;20222;-72
2023/01/25 14:21:19;;;;;;;31.40;17.50;;;2.90;99.90;;;;;;4967042;28;20449;-72
2023/01/25 14:23:45;;;;;;;31.80;18.40;;;2.80;99.90;;;;;;4958347;28;20193;-72
2023/01/25 14:26:23;;;;;;;33.30;17.00;;;2.90;99.90;;;;;;4974647;28;20926;-72
2023/01/25 14:28:54;;;;;;;28.53;16.87;;;2.90;99.90;;;;;;4974117;28;20402;-71
2023/01/25 14:31:26;;;;;;;32.13;18.90;;;2.90;99.90;;;;;;4974126;28;20933;-72